Kettering, Ohio
Current Conditions -  °F | °C
As of 10:53 PM on Wednesday 22 Oct 2014 (Local Time) from KMGY Reporting Station
Overcast Overcast  
Wind Chill:   Ceiling: 2600
Heat Index:   Visibility: 10mi
Dew Point:   Wind: 0mph
Humidity: 71%   Direction: NA
Pressure: 30.26"   Gusts: NA
Location:  39.7°N, 84.16°W
Report Text: KMGY 230253Z AUTO 00000KT 10SM OVC026 09/04 A3026 RMK AO2 SLP251 T00890039 58002
Loading
Personal Weather Stations






























Interactive Weather Map
Tropical Storm Tracking
New forecast layout! Learn more

10-Day Weather Forecast

Advertisements
Track Severe Weather on mobile